sensor_id;sensor_type;location;lat;lon;timestamp;P1;durP1;ratioP1;P2;durP2;ratioP2
28086;SDS011;15392;48.912;8.380;2024-02-14T00:02:14;0.20;;;0.20;;
28086;SDS011;15392;48.912;8.380;2024-02-14T00:05:00;0.30;;;0.28;;
28086;SDS011;15392;48.912;8.380;2024-02-14T00:07:47;0.52;;;0.50;;
28086;SDS011;15392;48.912;8.380;2024-02-14T00:10:33;0.80;;;0.30;;
28086;SDS011;15392;48.912;8.380;2024-02-14T00:13:19;0.35;;;0.35;;
28086;SDS011;15392;48.912;8.380;2024-02-14T00:16:05;0.50;;;0.40;;
28086;SDS011;15392;48.912;8.380;2024-02-14T00:18:52;0.50;;;0.50;;
28086;SDS011;15392;48.912;8.380;2024-02-14T00:21:38;0.40;;;0.40;;
28086;SDS011;15392;48.912;8.380;2024-02-14T00:24:24;0.70;;;0.70;;
28086;SDS011;15392;48.912;8.380;2024-02-14T00:27:12;0.80;;;0.65;;
28086;SDS011;15392;48.912;8.380;2024-02-14T00:29:59;1.33;;;0.60;;
28086;SDS011;15392;48.912;8.380;2024-02-14T00:32:46;0.60;;;0.60;;
28086;SDS011;15392;48.912;8.380;2024-02-14T00:35:32;0.80;;;0.80;;
28086;SDS011;15392;48.912;8.380;2024-02-14T00:38:18;0.80;;;0.80;;
28086;SDS011;15392;48.912;8.380;2024-02-14T00:41:04;0.73;;;0.70;;
28086;SDS011;15392;48.912;8.380;2024-02-14T00:43:50;0.70;;;0.70;;
28086;SDS011;15392;48.912;8.380;2024-02-14T00:46:36;0.70;;;0.70;;
28086;SDS011;15392;48.912;8.380;2024-02-14T00:49:22;0.70;;;0.70;;
28086;SDS011;15392;48.912;8.380;2024-02-14T00:52:08;0.73;;;0.73;;
28086;SDS011;15392;48.912;8.380;2024-02-14T00:54:54;0.70;;;0.70;;
28086;SDS011;15392;48.912;8.380;2024-02-14T00:57:41;0.80;;;0.80;;
28086;SDS011;15392;48.912;8.380;2024-02-14T01:00:27;0.93;;;0.93;;
28086;SDS011;15392;48.912;8.380;2024-02-14T01:03:13;0.90;;;0.90;;
28086;SDS011;15392;48.912;8.380;2024-02-14T01:06:01;0.80;;;0.80;;
28086;SDS011;15392;48.912;8.380;2024-02-14T01:08:49;0.80;;;0.80;;
28086;SDS011;15392;48.912;8.380;2024-02-14T01:11:35;0.80;;;0.80;;
28086;SDS011;15392;48.912;8.380;2024-02-14T01:14:23;0.90;;;0.90;;
28086;SDS011;15392;48.912;8.380;2024-02-14T01:17:09;0.80;;;0.80;;
28086;SDS011;15392;48.912;8.380;2024-02-14T01:19:55;0.90;;;0.90;;
28086;SDS011;15392;48.912;8.380;2024-02-14T01:22:41;0.60;;;0.60;;
28086;SDS011;15392;48.912;8.380;2024-02-14T01:25:27;0.68;;;0.68;;
28086;SDS011;15392;48.912;8.380;2024-02-14T01:28:13;0.85;;;0.80;;
28086;SDS011;15392;48.912;8.380;2024-02-14T01:31:00;0.70;;;0.70;;
28086;SDS011;15392;48.912;8.380;2024-02-14T01:33:46;0.52;;;0.52;;
28086;SDS011;15392;48.912;8.380;2024-02-14T01:36:32;0.60;;;0.60;;
28086;SDS011;15392;48.912;8.380;2024-02-14T01:39:24;0.38;;;0.38;;
28086;SDS011;15392;48.912;8.380;2024-02-14T01:42:10;0.50;;;0.50;;
28086;SDS011;15392;48.912;8.380;2024-02-14T01:44:56;0.40;;;0.40;;
28086;SDS011;15392;48.912;8.380;2024-02-14T01:47:45;0.50;;;0.50;;
28086;SDS011;15392;48.912;8.380;2024-02-14T01:50:31;0.35;;;0.35;;
28086;SDS011;15392;48.912;8.380;2024-02-14T01:53:18;0.40;;;0.40;;
28086;SDS011;15392;48.912;8.380;2024-02-14T01:56:05;0.40;;;0.40;;
28086;SDS011;15392;48.912;8.380;2024-02-14T01:58:51;0.50;;;0.50;;
28086;SDS011;15392;48.912;8.380;2024-02-14T02:01:38;0.40;;;0.40;;
28086;SDS011;15392;48.912;8.380;2024-02-14T02:04:24;0.50;;;0.50;;
28086;SDS011;15392;48.912;8.380;2024-02-14T02:07:11;0.47;;;0.47;;
28086;SDS011;15392;48.912;8.380;2024-02-14T02:09:57;0.30;;;0.30;;
28086;SDS011;15392;48.912;8.380;2024-02-14T02:12:43;0.38;;;0.38;;
28086;SDS011;15392;48.912;8.380;2024-02-14T02:15:29;0.50;;;0.50;;
28086;SDS011;15392;48.912;8.380;2024-02-14T02:18:16;0.40;;;0.40;;
28086;SDS011;15392;48.912;8.380;2024-02-14T02:21:02;0.60;;;0.60;;
28086;SDS011;15392;48.912;8.380;2024-02-14T02:23:52;0.40;;;0.40;;
28086;SDS011;15392;48.912;8.380;2024-02-14T02:26:38;0.65;;;0.60;;
28086;SDS011;15392;48.912;8.380;2024-02-14T02:29:24;0.45;;;0.45;;
28086;SDS011;15392;48.912;8.380;2024-02-14T02:32:10;0.50;;;0.50;;
28086;SDS011;15392;48.912;8.380;2024-02-14T02:34:57;0.50;;;0.50;;
28086;SDS011;15392;48.912;8.380;2024-02-14T02:37:46;0.40;;;0.40;;
28086;SDS011;15392;48.912;8.380;2024-02-14T02:40:36;0.52;;;0.40;;
28086;SDS011;15392;48.912;8.380;2024-02-14T02:43:22;0.20;;;0.20;;
28086;SDS011;15392;48.912;8.380;2024-02-14T02:46:11;0.22;;;0.20;;
28086;SDS011;15392;48.912;8.380;2024-02-14T02:48:57;0.30;;;0.30;;
28086;SDS011;15392;48.912;8.380;2024-02-14T02:51:43;1.85;;;0.40;;
28086;SDS011;15392;48.912;8.380;2024-02-14T02:54:29;0.30;;;0.30;;
28086;SDS011;15392;48.912;8.380;2024-02-14T02:57:15;0.30;;;0.30;;
28086;SDS011;15392;48.912;8.380;2024-02-14T03:00:02;0.38;;;0.38;;
28086;SDS011;15392;48.912;8.380;2024-02-14T03:02:50;0.30;;;0.30;;
28086;SDS011;15392;48.912;8.380;2024-02-14T03:05:36;0.30;;;0.30;;
28086;SDS011;15392;48.912;8.380;2024-02-14T03:08:24;0.40;;;0.40;;
28086;SDS011;15392;48.912;8.380;2024-02-14T03:11:11;0.28;;;0.28;;
28086;SDS011;15392;48.912;8.380;2024-02-14T03:13:57;0.30;;;0.30;;
28086;SDS011;15392;48.912;8.380;2024-02-14T03:16:43;0.45;;;0.35;;
28086;SDS011;15392;48.912;8.380;2024-02-14T03:19:29;0.75;;;0.40;;
28086;SDS011;15392;48.912;8.380;2024-02-14T03:22:23;0.40;;;0.40;;
28086;SDS011;15392;48.912;8.380;2024-02-14T03:25:12;0.30;;;0.30;;
28086;SDS011;15392;48.912;8.380;2024-02-14T03:28:02;0.30;;;0.30;;
28086;SDS011;15392;48.912;8.380;2024-02-14T03:30:53;0.45;;;0.45;;
28086;SDS011;15392;48.912;8.380;2024-02-14T03:33:40;0.30;;;0.30;;
28086;SDS011;15392;48.912;8.380;2024-02-14T03:36:26;0.30;;;0.30;;
28086;SDS011;15392;48.912;8.380;2024-02-14T03:39:16;0.40;;;0.40;;
28086;SDS011;15392;48.912;8.380;2024-02-14T03:42:03;0.22;;;0.22;;
28086;SDS011;15392;48.912;8.380;2024-02-14T03:44:52;0.30;;;0.30;;
28086;SDS011;15392;48.912;8.380;2024-02-14T03:47:45;0.50;;;0.47;;
28086;SDS011;15392;48.912;8.380;2024-02-14T03:50:31;0.82;;;0.50;;
28086;SDS011;15392;48.912;8.380;2024-02-14T03:53:18;0.30;;;0.30;;
28086;SDS011;15392;48.912;8.380;2024-02-14T03:56:04;0.60;;;0.40;;
28086;SDS011;15392;48.912;8.380;2024-02-14T03:58:52;0.50;;;0.50;;
28086;SDS011;15392;48.912;8.380;2024-02-14T04:01:39;0.75;;;0.70;;
28086;SDS011;15392;48.912;8.380;2024-02-14T04:04:30;0.60;;;0.60;;
28086;SDS011;15392;48.912;8.380;2024-02-14T04:07:17;0.50;;;0.50;;
28086;SDS011;15392;48.912;8.380;2024-02-14T04:10:03;0.75;;;0.50;;
28086;SDS011;15392;48.912;8.380;2024-02-14T04:12:50;0.50;;;0.50;;
28086;SDS011;15392;48.912;8.380;2024-02-14T04:15:36;0.77;;;0.77;;
28086;SDS011;15392;48.912;8.380;2024-02-14T04:18:22;1.23;;;1.10;;
28086;SDS011;15392;48.912;8.380;2024-02-14T04:21:08;0.85;;;0.85;;
28086;SDS011;15392;48.912;8.380;2024-02-14T04:23:54;0.98;;;0.98;;
28086;SDS011;15392;48.912;8.380;2024-02-14T04:26:41;0.60;;;0.60;;
28086;SDS011;15392;48.912;8.380;2024-02-14T04:29:27;0.77;;;0.77;;
28086;SDS011;15392;48.912;8.380;2024-02-14T04:32:15;0.45;;;0.45;;
28086;SDS011;15392;48.912;8.380;2024-02-14T04:35:02;0.65;;;0.57;;
28086;SDS011;15392;48.912;8.380;2024-02-14T04:37:49;0.50;;;0.50;;
28086;SDS011;15392;48.912;8.380;2024-02-14T04:40:36;0.50;;;0.50;;
28086;SDS011;15392;48.912;8.380;2024-02-14T04:43:23;0.63;;;0.45;;
28086;SDS011;15392;48.912;8.380;2024-02-14T04:46:12;0.50;;;0.50;;
28086;SDS011;15392;48.912;8.380;2024-02-14T04:48:58;0.47;;;0.47;;
28086;SDS011;15392;48.912;8.380;2024-02-14T04:51:44;0.65;;;0.65;;
28086;SDS011;15392;48.912;8.380;2024-02-14T04:54:30;0.40;;;0.40;;
28086;SDS011;15392;48.912;8.380;2024-02-14T04:57:16;0.40;;;0.40;;
28086;SDS011;15392;48.912;8.380;2024-02-14T05:00:04;0.50;;;0.40;;
28086;SDS011;15392;48.912;8.380;2024-02-14T05:02:51;0.30;;;0.30;;
28086;SDS011;15392;48.912;8.380;2024-02-14T05:05:37;0.35;;;0.35;;
28086;SDS011;15392;48.912;8.380;2024-02-14T05:08:23;0.30;;;0.30;;
28086;SDS011;15392;48.912;8.380;2024-02-14T05:11:09;0.47;;;0.47;;
28086;SDS011;15392;48.912;8.380;2024-02-14T05:13:55;0.40;;;0.30;;
28086;SDS011;15392;48.912;8.380;2024-02-14T05:16:41;0.40;;;0.32;;
28086;SDS011;15392;48.912;8.380;2024-02-14T05:19:27;0.68;;;0.50;;
28086;SDS011;15392;48.912;8.380;2024-02-14T05:22:15;0.57;;;0.57;;
28086;SDS011;15392;48.912;8.380;2024-02-14T05:25:01;0.65;;;0.65;;
28086;SDS011;15392;48.912;8.380;2024-02-14T05:27:47;0.50;;;0.50;;
28086;SDS011;15392;48.912;8.380;2024-02-14T05:30:34;0.40;;;0.40;;
28086;SDS011;15392;48.912;8.380;2024-02-14T05:33:21;0.45;;;0.45;;
28086;SDS011;15392;48.912;8.380;2024-02-14T05:36:08;0.30;;;0.30;;
28086;SDS011;15392;48.912;8.380;2024-02-14T05:38:54;0.40;;;0.40;;
28086;SDS011;15392;48.912;8.380;2024-02-14T05:41:40;0.40;;;0.40;;
28086;SDS011;15392;48.912;8.380;2024-02-14T05:44:26;0.35;;;0.35;;
28086;SDS011;15392;48.912;8.380;2024-02-14T05:47:13;0.77;;;0.77;;
28086;SDS011;15392;48.912;8.380;2024-02-14T05:50:00;0.45;;;0.45;;
28086;SDS011;15392;48.912;8.380;2024-02-14T05:52:46;0.80;;;0.60;;
28086;SDS011;15392;48.912;8.380;2024-02-14T05:55:32;0.50;;;0.50;;
28086;SDS011;15392;48.912;8.380;2024-02-14T05:58:18;0.43;;;0.43;;
28086;SDS011;15392;48.912;8.380;2024-02-14T06:01:04;0.93;;;0.50;;
28086;SDS011;15392;48.912;8.380;2024-02-14T06:03:51;0.40;;;0.40;;
28086;SDS011;15392;48.912;8.380;2024-02-14T06:06:37;3.72;;;3.42;;
28086;SDS011;15392;48.912;8.380;2024-02-14T06:09:23;3.17;;;2.97;;
28086;SDS011;15392;48.912;8.380;2024-02-14T06:12:10;2.05;;;1.95;;
28086;SDS011;15392;48.912;8.380;2024-02-14T06:14:56;1.50;;;1.40;;
28086;SDS011;15392;48.912;8.380;2024-02-14T06:17:42;0.80;;;0.80;;
28086;SDS011;15392;48.912;8.380;2024-02-14T06:20:28;0.60;;;0.60;;
28086;SDS011;15392;48.912;8.380;2024-02-14T06:23:14;0.40;;;0.40;;
28086;SDS011;15392;48.912;8.380;2024-02-14T06:26:00;0.55;;;0.55;;
28086;SDS011;15392;48.912;8.380;2024-02-14T06:28:46;0.60;;;0.60;;
28086;SDS011;15392;48.912;8.380;2024-02-14T06:31:32;0.45;;;0.45;;
28086;SDS011;15392;48.912;8.380;2024-02-14T06:34:18;0.73;;;0.73;;
28086;SDS011;15392;48.912;8.380;2024-02-14T06:37:05;0.50;;;0.50;;
28086;SDS011;15392;48.912;8.380;2024-02-14T06:39:51;0.50;;;0.50;;
28086;SDS011;15392;48.912;8.380;2024-02-14T06:42:37;0.50;;;0.50;;
28086;SDS011;15392;48.912;8.380;2024-02-14T06:45:23;0.77;;;0.73;;
28086;SDS011;15392;48.912;8.380;2024-02-14T06:48:09;0.70;;;0.70;;
28086;SDS011;15392;48.912;8.380;2024-02-14T06:50:55;0.50;;;0.50;;
28086;SDS011;15392;48.912;8.380;2024-02-14T06:53:41;0.32;;;0.32;;
28086;SDS011;15392;48.912;8.380;2024-02-14T06:56:29;2.05;;;0.50;;
28086;SDS011;15392;48.912;8.380;2024-02-14T06:59:16;0.70;;;0.70;;
28086;SDS011;15392;48.912;8.380;2024-02-14T07:02:02;0.82;;;0.65;;
28086;SDS011;15392;48.912;8.380;2024-02-14T07:04:48;0.70;;;0.70;;
28086;SDS011;15392;48.912;8.380;2024-02-14T07:07:34;0.52;;;0.52;;
28086;SDS011;15392;48.912;8.380;2024-02-14T07:10:21;0.65;;;0.52;;
28086;SDS011;15392;48.912;8.380;2024-02-14T07:13:07;0.77;;;0.77;;
28086;SDS011;15392;48.912;8.380;2024-02-14T07:15:53;0.73;;;0.73;;
28086;SDS011;15392;48.912;8.380;2024-02-14T07:18:39;1.00;;;1.00;;
28086;SDS011;15392;48.912;8.380;2024-02-14T07:21:26;0.70;;;0.70;;
28086;SDS011;15392;48.912;8.380;2024-02-14T07:24:12;0.82;;;0.80;;
28086;SDS011;15392;48.912;8.380;2024-02-14T07:26:58;1.13;;;0.70;;
28086;SDS011;15392;48.912;8.380;2024-02-14T07:29:44;0.90;;;0.90;;
28086;SDS011;15392;48.912;8.380;2024-02-14T07:32:30;0.88;;;0.88;;
28086;SDS011;15392;48.912;8.380;2024-02-14T07:35:16;0.80;;;0.80;;
28086;SDS011;15392;48.912;8.380;2024-02-14T07:38:03;0.68;;;0.68;;
28086;SDS011;15392;48.912;8.380;2024-02-14T07:40:52;1.90;;;1.80;;
28086;SDS011;15392;48.912;8.380;2024-02-14T07:43:38;1.20;;;1.20;;
28086;SDS011;15392;48.912;8.380;2024-02-14T07:46:24;0.80;;;0.80;;
28086;SDS011;15392;48.912;8.380;2024-02-14T07:49:12;0.70;;;0.70;;
28086;SDS011;15392;48.912;8.380;2024-02-14T07:51:59;0.80;;;0.80;;
28086;SDS011;15392;48.912;8.380;2024-02-14T07:54:45;1.23;;;0.70;;
28086;SDS011;15392;48.912;8.380;2024-02-14T07:57:31;0.70;;;0.70;;
28086;SDS011;15392;48.912;8.380;2024-02-14T08:00:17;0.60;;;0.60;;
28086;SDS011;15392;48.912;8.380;2024-02-14T08:03:07;2.00;;;1.90;;
28086;SDS011;15392;48.912;8.380;2024-02-14T08:05:54;2.00;;;1.90;;
28086;SDS011;15392;48.912;8.380;2024-02-14T08:08:40;2.58;;;2.47;;
28086;SDS011;15392;48.912;8.380;2024-02-14T08:11:26;2.88;;;2.67;;
28086;SDS011;15392;48.912;8.380;2024-02-14T08:14:12;2.00;;;1.90;;
28086;SDS011;15392;48.912;8.380;2024-02-14T08:16:58;2.63;;;2.42;;
28086;SDS011;15392;48.912;8.380;2024-02-14T08:19:44;2.17;;;2.08;;
28086;SDS011;15392;48.912;8.380;2024-02-14T08:22:30;1.70;;;1.60;;
28086;SDS011;15392;48.912;8.380;2024-02-14T08:25:16;0.98;;;0.90;;
28086;SDS011;15392;48.912;8.380;2024-02-14T08:28:02;0.93;;;0.70;;
28086;SDS011;15392;48.912;8.380;2024-02-14T08:30:48;0.60;;;0.60;;
28086;SDS011;15392;48.912;8.380;2024-02-14T08:33:34;0.50;;;0.50;;
28086;SDS011;15392;48.912;8.380;2024-02-14T08:36:20;1.48;;;0.82;;
28086;SDS011;15392;48.912;8.380;2024-02-14T08:39:10;0.90;;;0.90;;
28086;SDS011;15392;48.912;8.380;2024-02-14T08:41:56;0.98;;;0.95;;
28086;SDS011;15392;48.912;8.380;2024-02-14T08:44:42;0.60;;;0.60;;
28086;SDS011;15392;48.912;8.380;2024-02-14T08:47:28;0.60;;;0.60;;
28086;SDS011;15392;48.912;8.380;2024-02-14T08:50:14;0.82;;;0.82;;
28086;SDS011;15392;48.912;8.380;2024-02-14T08:53:00;1.15;;;0.95;;
28086;SDS011;15392;48.912;8.380;2024-02-14T08:55:46;0.70;;;0.70;;
28086;SDS011;15392;48.912;8.380;2024-02-14T08:58:32;0.80;;;0.80;;
28086;SDS011;15392;48.912;8.380;2024-02-14T09:01:20;0.65;;;0.65;;
28086;SDS011;15392;48.912;8.380;2024-02-14T09:04:07;1.10;;;1.10;;
28086;SDS011;15392;48.912;8.380;2024-02-14T09:06:53;0.77;;;0.77;;
28086;SDS011;15392;48.912;8.380;2024-02-14T09:09:39;2.00;;;1.90;;
28086;SDS011;15392;48.912;8.380;2024-02-14T09:12:25;2.63;;;2.42;;
28086;SDS011;15392;48.912;8.380;2024-02-14T09:15:11;1.75;;;1.65;;
28086;SDS011;15392;48.912;8.380;2024-02-14T09:17:57;1.20;;;1.20;;
28086;SDS011;15392;48.912;8.380;2024-02-14T09:20:45;1.08;;;1.08;;
28086;SDS011;15392;48.912;8.380;2024-02-14T09:23:31;2.47;;;2.38;;
28086;SDS011;15392;48.912;8.380;2024-02-14T09:26:17;1.70;;;1.60;;
28086;SDS011;15392;48.912;8.380;2024-02-14T09:29:04;1.90;;;1.80;;
28086;SDS011;15392;48.912;8.380;2024-02-14T09:31:50;1.55;;;1.52;;
28086;SDS011;15392;48.912;8.380;2024-02-14T09:34:40;1.20;;;1.20;;
28086;SDS011;15392;48.912;8.380;2024-02-14T09:37:26;1.48;;;1.38;;
28086;SDS011;15392;48.912;8.380;2024-02-14T09:40:14;0.85;;;0.85;;
28086;SDS011;15392;48.912;8.380;2024-02-14T09:43:01;0.90;;;0.90;;
28086;SDS011;15392;48.912;8.380;2024-02-14T09:45:51;0.90;;;0.90;;
28086;SDS011;15392;48.912;8.380;2024-02-14T09:48:38;0.90;;;0.90;;
28086;SDS011;15392;48.912;8.380;2024-02-14T09:51:31;0.80;;;0.80;;
28086;SDS011;15392;48.912;8.380;2024-02-14T09:54:18;0.70;;;0.70;;
28086;SDS011;15392;48.912;8.380;2024-02-14T09:57:04;0.68;;;0.68;;
28086;SDS011;15392;48.912;8.380;2024-02-14T09:59:51;0.60;;;0.60;;
28086;SDS011;15392;48.912;8.380;2024-02-14T10:10:42;1.92;;;1.83;;
28086;SDS011;15392;48.912;8.380;2024-02-14T10:13:29;1.73;;;1.63;;
28086;SDS011;15392;48.912;8.380;2024-02-14T10:16:17;1.55;;;1.45;;
28086;SDS011;15392;48.912;8.380;2024-02-14T10:19:04;0.80;;;0.80;;
28086;SDS011;15392;48.912;8.380;2024-02-14T10:21:56;0.70;;;0.70;;
28086;SDS011;15392;48.912;8.380;2024-02-14T10:24:48;0.50;;;0.50;;
28086;SDS011;15392;48.912;8.380;2024-02-14T10:27:37;0.40;;;0.40;;
28086;SDS011;15392;48.912;8.380;2024-02-14T10:30:24;0.40;;;0.40;;
28086;SDS011;15392;48.912;8.380;2024-02-14T10:33:11;0.40;;;0.40;;
28086;SDS011;15392;48.912;8.380;2024-02-14T10:35:57;0.40;;;0.40;;
28086;SDS011;15392;48.912;8.380;2024-02-14T10:38:43;0.50;;;0.50;;
28086;SDS011;15392;48.912;8.380;2024-02-14T10:41:33;0.50;;;0.50;;
28086;SDS011;15392;48.912;8.380;2024-02-14T10:44:20;0.40;;;0.40;;
28086;SDS011;15392;48.912;8.380;2024-02-14T10:47:06;0.80;;;0.80;;
28086;SDS011;15392;48.912;8.380;2024-02-14T10:50:03;0.57;;;0.57;;
28086;SDS011;15392;48.912;8.380;2024-02-14T10:52:53;0.40;;;0.40;;
28086;SDS011;15392;48.912;8.380;2024-02-14T10:58:31;0.30;;;0.30;;
28086;SDS011;15392;48.912;8.380;2024-02-14T11:01:20;0.50;;;0.50;;
28086;SDS011;15392;48.912;8.380;2024-02-14T11:04:07;0.43;;;0.43;;
28086;SDS011;15392;48.912;8.380;2024-02-14T11:06:54;0.57;;;0.57;;
28086;SDS011;15392;48.912;8.380;2024-02-14T11:09:42;0.65;;;0.65;;
28086;SDS011;15392;48.912;8.380;2024-02-14T11:12:31;1.15;;;1.15;;
28086;SDS011;15392;48.912;8.380;2024-02-14T11:15:24;1.25;;;1.25;;
28086;SDS011;15392;48.912;8.380;2024-02-14T11:18:10;1.80;;;1.70;;
28086;SDS011;15392;48.912;8.380;2024-02-14T11:20:56;1.35;;;1.35;;
28086;SDS011;15392;48.912;8.380;2024-02-14T11:23:54;1.40;;;1.40;;
28086;SDS011;15392;48.912;8.380;2024-02-14T11:26:50;1.30;;;1.30;;
28086;SDS011;15392;48.912;8.380;2024-02-14T11:29:40;0.73;;;0.73;;
28086;SDS011;15392;48.912;8.380;2024-02-14T11:32:37;0.70;;;0.70;;
28086;SDS011;15392;48.912;8.380;2024-02-14T11:38:13;0.47;;;0.47;;
28086;SDS011;15392;48.912;8.380;2024-02-14T11:41:00;1.00;;;1.00;;
28086;SDS011;15392;48.912;8.380;2024-02-14T11:43:52;1.17;;;1.17;;
28086;SDS011;15392;48.912;8.380;2024-02-14T11:46:38;0.80;;;0.80;;
28086;SDS011;15392;48.912;8.380;2024-02-14T11:49:24;0.40;;;0.40;;
28086;SDS011;15392;48.912;8.380;2024-02-14T11:52:14;0.30;;;0.30;;
28086;SDS011;15392;48.912;8.380;2024-02-14T11:55:00;0.50;;;0.50;;
28086;SDS011;15392;48.912;8.380;2024-02-14T11:57:46;0.57;;;0.57;;
28086;SDS011;15392;48.912;8.380;2024-02-14T12:00:33;0.40;;;0.40;;
28086;SDS011;15392;48.912;8.380;2024-02-14T12:03:22;0.50;;;0.50;;
28086;SDS011;15392;48.912;8.380;2024-02-14T12:06:09;0.17;;;0.17;;
28086;SDS011;15392;48.912;8.380;2024-02-14T12:08:55;0.30;;;0.30;;
28086;SDS011;15392;48.912;8.380;2024-02-14T12:11:42;0.30;;;0.30;;
28086;SDS011;15392;48.912;8.380;2024-02-14T12:14:28;0.40;;;0.40;;
28086;SDS011;15392;48.912;8.380;2024-02-14T12:17:16;0.40;;;0.40;;
28086;SDS011;15392;48.912;8.380;2024-02-14T12:20:10;0.30;;;0.30;;
28086;SDS011;15392;48.912;8.380;2024-02-14T12:22:59;0.20;;;0.20;;
28086;SDS011;15392;48.912;8.380;2024-02-14T12:25:45;0.13;;;0.13;;
28086;SDS011;15392;48.912;8.380;2024-02-14T12:28:32;0.28;;;0.10;;
28086;SDS011;15392;48.912;8.380;2024-02-14T12:31:23;0.20;;;0.20;;
28086;SDS011;15392;48.912;8.380;2024-02-14T12:34:10;0.30;;;0.20;;
28086;SDS011;15392;48.912;8.380;2024-02-14T12:36:57;0.20;;;0.20;;
28086;SDS011;15392;48.912;8.380;2024-02-14T12:39:43;0.30;;;0.30;;
28086;SDS011;15392;48.912;8.380;2024-02-14T12:42:29;0.30;;;0.30;;
28086;SDS011;15392;48.912;8.380;2024-02-14T12:45:15;0.30;;;0.30;;
28086;SDS011;15392;48.912;8.380;2024-02-14T12:48:01;0.10;;;0.10;;
28086;SDS011;15392;48.912;8.380;2024-02-14T12:50:48;0.13;;;0.13;;
28086;SDS011;15392;48.912;8.380;2024-02-14T12:53:35;0.20;;;0.20;;
28086;SDS011;15392;48.912;8.380;2024-02-14T12:56:21;0.30;;;0.30;;
28086;SDS011;15392;48.912;8.380;2024-02-14T12:59:07;1.77;;;0.20;;
28086;SDS011;15392;48.912;8.380;2024-02-14T13:01:57;0.20;;;0.20;;
28086;SDS011;15392;48.912;8.380;2024-02-14T13:04:43;0.20;;;0.20;;
28086;SDS011;15392;48.912;8.380;2024-02-14T13:07:29;0.25;;;0.25;;
28086;SDS011;15392;48.912;8.380;2024-02-14T13:10:16;0.25;;;0.25;;
28086;SDS011;15392;48.912;8.380;2024-02-14T13:13:03;0.25;;;0.25;;
28086;SDS011;15392;48.912;8.380;2024-02-14T13:15:50;0.40;;;0.40;;
28086;SDS011;15392;48.912;8.380;2024-02-14T13:18:36;0.38;;;0.38;;
28086;SDS011;15392;48.912;8.380;2024-02-14T13:21:22;0.40;;;0.40;;
28086;SDS011;15392;48.912;8.380;2024-02-14T13:24:08;0.25;;;0.25;;
28086;SDS011;15392;48.912;8.380;2024-02-14T13:26:58;0.28;;;0.28;;
28086;SDS011;15392;48.912;8.380;2024-02-14T13:29:44;0.32;;;0.30;;
28086;SDS011;15392;48.912;8.380;2024-02-14T13:32:30;0.20;;;0.20;;
28086;SDS011;15392;48.912;8.380;2024-02-14T13:35:16;0.20;;;0.20;;
28086;SDS011;15392;48.912;8.380;2024-02-14T13:38:02;0.22;;;0.20;;
28086;SDS011;15392;48.912;8.380;2024-02-14T13:40:48;0.30;;;0.30;;
28086;SDS011;15392;48.912;8.380;2024-02-14T13:43:34;0.25;;;0.25;;
28086;SDS011;15392;48.912;8.380;2024-02-14T13:46:21;0.20;;;0.20;;
28086;SDS011;15392;48.912;8.380;2024-02-14T13:49:07;0.57;;;0.32;;
28086;SDS011;15392;48.912;8.380;2024-02-14T13:51:53;0.20;;;0.20;;
28086;SDS011;15392;48.912;8.380;2024-02-14T13:54:39;0.10;;;0.10;;
28086;SDS011;15392;48.912;8.380;2024-02-14T13:57:25;0.28;;;0.28;;
28086;SDS011;15392;48.912;8.380;2024-02-14T14:00:15;0.20;;;0.20;;
28086;SDS011;15392;48.912;8.380;2024-02-14T14:03:01;0.30;;;0.30;;
28086;SDS011;15392;48.912;8.380;2024-02-14T14:05:48;1.20;;;1.20;;
28086;SDS011;15392;48.912;8.380;2024-02-14T14:08:35;1.83;;;1.73;;
28086;SDS011;15392;48.912;8.380;2024-02-14T14:11:21;1.00;;;1.00;;
28086;SDS011;15392;48.912;8.380;2024-02-14T14:14:08;1.10;;;1.10;;
28086;SDS011;15392;48.912;8.380;2024-02-14T14:17:08;0.70;;;0.70;;
28086;SDS011;15392;48.912;8.380;2024-02-14T14:19:54;0.50;;;0.50;;
28086;SDS011;15392;48.912;8.380;2024-02-14T14:22:40;0.50;;;0.50;;
28086;SDS011;15392;48.912;8.380;2024-02-14T14:25:29;0.40;;;0.40;;
28086;SDS011;15392;48.912;8.380;2024-02-14T14:28:21;0.40;;;0.40;;
28086;SDS011;15392;48.912;8.380;2024-02-14T14:31:10;0.57;;;0.57;;
28086;SDS011;15392;48.912;8.380;2024-02-14T14:34:07;0.55;;;0.55;;
28086;SDS011;15392;48.912;8.380;2024-02-14T14:36:54;0.40;;;0.40;;
28086;SDS011;15392;48.912;8.380;2024-02-14T14:39:40;0.40;;;0.40;;
28086;SDS011;15392;48.912;8.380;2024-02-14T14:42:29;0.50;;;0.50;;
28086;SDS011;15392;48.912;8.380;2024-02-14T14:45:15;0.70;;;0.50;;
28086;SDS011;15392;48.912;8.380;2024-02-14T14:48:02;0.30;;;0.30;;
28086;SDS011;15392;48.912;8.380;2024-02-14T14:50:48;0.32;;;0.32;;
28086;SDS011;15392;48.912;8.380;2024-02-14T14:53:34;0.50;;;0.43;;
28086;SDS011;15392;48.912;8.380;2024-02-14T14:56:20;0.40;;;0.40;;
28086;SDS011;15392;48.912;8.380;2024-02-14T14:59:10;0.40;;;0.40;;
28086;SDS011;15392;48.912;8.380;2024-02-14T15:01:56;0.50;;;0.50;;
28086;SDS011;15392;48.912;8.380;2024-02-14T15:04:43;0.47;;;0.47;;
28086;SDS011;15392;48.912;8.380;2024-02-14T15:07:31;0.43;;;0.43;;
28086;SDS011;15392;48.912;8.380;2024-02-14T15:10:17;0.40;;;0.40;;
28086;SDS011;15392;48.912;8.380;2024-02-14T15:13:05;0.50;;;0.50;;
28086;SDS011;15392;48.912;8.380;2024-02-14T15:15:54;1.00;;;1.00;;
28086;SDS011;15392;48.912;8.380;2024-02-14T15:18:40;1.50;;;1.50;;
28086;SDS011;15392;48.912;8.380;2024-02-14T15:21:30;1.00;;;1.00;;
28086;SDS011;15392;48.912;8.380;2024-02-14T15:24:16;0.88;;;0.88;;
28086;SDS011;15392;48.912;8.380;2024-02-14T15:27:02;0.73;;;0.73;;
28086;SDS011;15392;48.912;8.380;2024-02-14T15:29:52;0.90;;;0.90;;
28086;SDS011;15392;48.912;8.380;2024-02-14T15:32:56;0.88;;;0.88;;
28086;SDS011;15392;48.912;8.380;2024-02-14T15:36:01;0.50;;;0.50;;
28086;SDS011;15392;48.912;8.380;2024-02-14T15:38:47;0.50;;;0.50;;
28086;SDS011;15392;48.912;8.380;2024-02-14T15:41:33;0.50;;;0.50;;
28086;SDS011;15392;48.912;8.380;2024-02-14T15:44:19;1.48;;;1.38;;
28086;SDS011;15392;48.912;8.380;2024-02-14T15:47:05;1.60;;;1.50;;
28086;SDS011;15392;48.912;8.380;2024-02-14T15:49:53;1.80;;;1.70;;
28086;SDS011;15392;48.912;8.380;2024-02-14T15:52:41;1.20;;;1.20;;
28086;SDS011;15392;48.912;8.380;2024-02-14T15:55:31;1.70;;;1.60;;
28086;SDS011;15392;48.912;8.380;2024-02-14T15:58:17;1.23;;;1.13;;
28086;SDS011;15392;48.912;8.380;2024-02-14T16:01:03;0.50;;;0.50;;
28086;SDS011;15392;48.912;8.380;2024-02-14T16:03:52;0.50;;;0.50;;
28086;SDS011;15392;48.912;8.380;2024-02-14T16:06:41;0.43;;;0.43;;
28086;SDS011;15392;48.912;8.380;2024-02-14T16:09:27;0.30;;;0.30;;
28086;SDS011;15392;48.912;8.380;2024-02-14T16:12:13;0.57;;;0.57;;
28086;SDS011;15392;48.912;8.380;2024-02-14T16:15:00;0.50;;;0.50;;
28086;SDS011;15392;48.912;8.380;2024-02-14T16:17:46;0.43;;;0.35;;
28086;SDS011;15392;48.912;8.380;2024-02-14T16:20:33;0.50;;;0.50;;
28086;SDS011;15392;48.912;8.380;2024-02-14T16:23:19;0.68;;;0.68;;
28086;SDS011;15392;48.912;8.380;2024-02-14T16:26:05;0.50;;;0.50;;
28086;SDS011;15392;48.912;8.380;2024-02-14T16:28:51;0.60;;;0.60;;
28086;SDS011;15392;48.912;8.380;2024-02-14T16:31:37;0.80;;;0.80;;
28086;SDS011;15392;48.912;8.380;2024-02-14T16:34:23;1.40;;;1.38;;
28086;SDS011;15392;48.912;8.380;2024-02-14T16:37:09;1.00;;;1.00;;
28086;SDS011;15392;48.912;8.380;2024-02-14T16:40:02;1.73;;;1.63;;
28086;SDS011;15392;48.912;8.380;2024-02-14T16:42:50;1.33;;;1.33;;
28086;SDS011;15392;48.912;8.380;2024-02-14T16:45:36;1.00;;;1.00;;
28086;SDS011;15392;48.912;8.380;2024-02-14T16:48:23;1.00;;;1.00;;
28086;SDS011;15392;48.912;8.380;2024-02-14T16:51:10;1.40;;;1.40;;
28086;SDS011;15392;48.912;8.380;2024-02-14T16:53:58;1.45;;;1.35;;
28086;SDS011;15392;48.912;8.380;2024-02-14T16:56:45;0.82;;;0.82;;
28086;SDS011;15392;48.912;8.380;2024-02-14T16:59:31;0.80;;;0.80;;
28086;SDS011;15392;48.912;8.380;2024-02-14T17:02:17;0.60;;;0.60;;